createdAt,value
2017-12-23T00:01:26.370Z,100654.25
2017-12-23T00:03:53.974Z,100649.38
2017-12-23T00:06:21.635Z,100641.94
2017-12-23T00:08:49.247Z,100632.11
2017-12-23T00:11:16.907Z,100627.05
2017-12-23T00:13:44.510Z,100624.78
2017-12-23T00:16:12.119Z,100636.16
2017-12-23T00:18:39.698Z,100637.66
2017-12-23T00:21:07.380Z,100647.59
2017-12-23T00:23:35.051Z,100646.20
2017-12-23T00:26:02.715Z,100645.50
2017-12-23T00:28:30.321Z,100648.77
2017-12-23T00:30:57.995Z,100653.92
2017-12-23T00:33:25.607Z,100651.91
2017-12-23T00:35:53.210Z,100648.69
2017-12-23T00:38:20.823Z,100651.02
2017-12-23T00:40:48.484Z,100649.42
2017-12-23T00:43:16.086Z,100643.72
2017-12-23T00:45:43.759Z,100649.56
2017-12-23T00:48:11.358Z,100647.00
2017-12-23T00:50:38.966Z,100634.09
2017-12-23T00:53:06.578Z,100636.38
2017-12-23T00:55:34.182Z,100626.52
2017-12-23T00:58:01.785Z,100630.97
2017-12-23T01:00:29.463Z,100623.95
2017-12-23T01:02:57.143Z,100627.95
2017-12-23T01:05:24.754Z,100626.83
2017-12-23T01:07:52.422Z,100624.84
2017-12-23T01:10:20.027Z,100626.83
2017-12-23T01:12:47.635Z,100633.69
2017-12-23T01:15:15.250Z,100626.28
2017-12-23T01:17:42.858Z,100619.42
2017-12-23T01:20:10.470Z,100615.34
2017-12-23T01:22:38.095Z,100612.42
2017-12-23T01:25:05.706Z,100610.26
2017-12-23T01:27:33.306Z,100604.86
2017-12-23T01:30:00.979Z,100611.54
2017-12-23T01:32:28.582Z,100606.60
2017-12-23T01:34:56.190Z,100596.68
2017-12-23T01:37:23.867Z,100592.41
2017-12-23T01:39:51.466Z,100592.98
2017-12-23T01:42:19.070Z,100592.28
2017-12-23T01:44:46.683Z,100590.69
2017-12-23T01:47:14.286Z,100587.05
2017-12-23T01:49:41.894Z,100586.83
2017-12-23T01:52:09.510Z,100571.64
2017-12-23T01:54:37.114Z,100567.38
2017-12-23T01:57:04.713Z,100553.42
2017-12-23T01:59:32.334Z,100552.81
2017-12-23T02:01:59.945Z,100572.56
2017-12-23T02:04:27.551Z,100578.96
2017-12-23T02:06:55.167Z,100575.91
2017-12-23T02:09:22.838Z,100570.51
2017-12-23T02:11:50.441Z,100565.80
2017-12-23T02:14:18.054Z,100568.95
2017-12-23T02:16:45.654Z,100563.45
2017-12-23T02:19:13.261Z,100559.50
2017-12-23T02:21:40.868Z,100568.48
2017-12-23T02:24:08.527Z,100571.46
2017-12-23T02:26:36.133Z,100569.01
2017-12-23T02:29:03.806Z,100576.20
2017-12-23T02:31:31.472Z,100571.51
2017-12-23T02:33:59.078Z,100563.08
2017-12-23T02:36:26.695Z,100568.48
2017-12-23T02:38:54.303Z,100563.44
2017-12-23T02:41:21.906Z,100564.86
2017-12-23T02:43:49.587Z,100556.44
2017-12-23T02:46:17.199Z,100555.83
2017-12-23T02:48:44.859Z,100546.01
2017-12-23T02:51:12.535Z,100557.46
2017-12-23T02:53:40.149Z,100558.88
2017-12-23T02:56:07.758Z,100559.34
2017-12-23T02:58:35.430Z,100562.13
2017-12-23T03:01:03.041Z,100572.19
2017-12-23T03:03:30.641Z,100564.44
2017-12-23T03:05:58.323Z,100563.41
2017-12-23T03:08:25.930Z,100563.44
2017-12-23T03:10:53.531Z,100557.58
2017-12-23T03:13:21.199Z,100563.51
2017-12-23T03:15:48.806Z,100562.23
2017-12-23T03:18:16.410Z,100569.59
2017-12-23T03:20:44.122Z,100571.55
2017-12-23T03:23:11.780Z,100560.95
2017-12-23T03:25:39.385Z,100558.73
2017-12-23T03:28:07.041Z,100559.48
2017-12-23T03:30:34.676Z,100562.66
2017-12-23T03:33:02.278Z,100561.02
2017-12-23T03:35:29.936Z,100556.96
2017-12-23T03:37:57.545Z,100553.80
2017-12-23T03:40:25.144Z,100556.85
2017-12-23T03:42:52.798Z,100556.25
2017-12-23T03:45:20.455Z,100550.09
2017-12-23T03:47:48.055Z,100560.59
2017-12-23T03:50:15.685Z,100557.95
2017-12-23T03:52:43.294Z,100558.84
2017-12-23T03:55:10.950Z,100565.24
2017-12-23T03:57:38.630Z,100569.25
2017-12-23T04:00:06.234Z,100569.89
2017-12-23T04:02:33.896Z,100567.20
2017-12-23T04:05:01.554Z,100572.92
2017-12-23T04:07:29.215Z,100580.35
2017-12-23T04:09:56.818Z,100571.73
2017-12-23T04:12:24.479Z,100575.27
2017-12-23T04:14:52.085Z,100567.09
2017-12-23T04:17:19.681Z,100561.36
2017-12-23T04:19:47.339Z,100567.13
2017-12-23T04:22:14.956Z,100577.52
2017-12-23T04:24:42.620Z,100579.78
2017-12-23T04:27:10.339Z,100581.71
2017-12-23T04:29:38.035Z,100587.41
2017-12-23T04:32:05.642Z,100578.45
2017-12-23T04:34:33.356Z,100570.27
2017-12-23T04:37:01.017Z,100568.59
2017-12-23T04:39:28.617Z,100568.54
2017-12-23T04:41:56.322Z,100567.52
2017-12-23T04:44:23.983Z,100555.63
2017-12-23T04:46:51.589Z,100566.36
2017-12-23T04:49:19.239Z,100577.29
2017-12-23T04:51:46.898Z,100576.37
2017-12-23T04:54:14.502Z,100570.01
2017-12-23T04:56:42.218Z,100567.45
2017-12-23T04:59:09.818Z,100565.00
2017-12-23T05:01:37.479Z,100568.50
2017-12-23T05:04:05.187Z,100565.87
2017-12-23T05:06:32.847Z,100563.27
2017-12-23T05:09:00.447Z,100558.80
2017-12-23T05:11:28.107Z,100558.28
2017-12-23T05:13:55.727Z,100556.11
2017-12-23T05:16:23.330Z,100555.59
2017-12-23T05:18:50.977Z,100549.80
2017-12-23T05:21:18.575Z,100565.86
2017-12-23T05:23:46.183Z,100560.33
2017-12-23T05:26:13.842Z,100556.70
2017-12-23T05:28:41.506Z,100563.50
2017-12-23T05:31:09.219Z,100564.30
2017-12-23T05:33:36.874Z,100561.99
2017-12-23T05:36:04.490Z,100566.02
2017-12-23T05:38:32.091Z,100565.66
2017-12-23T05:40:59.751Z,100564.27
2017-12-23T05:43:27.421Z,100569.27
2017-12-23T05:45:55.023Z,100554.42
2017-12-23T05:48:22.739Z,100559.78
2017-12-23T05:50:50.346Z,100560.56
2017-12-23T05:53:17.947Z,100558.95
2017-12-23T05:55:45.658Z,100562.41
2017-12-23T05:58:13.315Z,100559.45
2017-12-23T06:00:40.931Z,100559.50
2017-12-23T06:03:08.647Z,100564.84
2017-12-23T06:05:36.255Z,100558.94
2017-12-23T06:08:03.851Z,100563.34
2017-12-23T06:10:31.502Z,100559.71
2017-12-23T06:12:59.110Z,100567.91
2017-12-23T06:15:26.763Z,100563.28
2017-12-23T06:17:54.423Z,100559.26
2017-12-23T06:20:22.079Z,100568.91
2017-12-23T06:22:49.684Z,100575.25
2017-12-23T06:25:17.335Z,100576.67
2017-12-23T06:27:44.995Z,100582.82
2017-12-23T06:30:12.660Z,100589.27
2017-12-23T06:32:40.379Z,100585.67
2017-12-23T06:35:07.987Z,100581.89
2017-12-23T06:37:35.598Z,100587.62
2017-12-23T06:40:03.255Z,100590.52
2017-12-23T06:42:30.915Z,100599.33
2017-12-23T06:44:58.510Z,100595.60
2017-12-23T06:47:26.231Z,100592.44
2017-12-23T06:49:53.860Z,100594.95
2017-12-23T06:52:22.154Z,100595.77
2017-12-23T06:54:49.774Z,100595.84
2017-12-23T06:57:17.374Z,100595.42
2017-12-23T06:59:44.978Z,100593.53
2017-12-23T07:02:12.586Z,100574.98
2017-12-23T07:04:40.248Z,100580.56
2017-12-23T07:07:07.853Z,100591.44
2017-12-23T07:09:35.582Z,100596.97
2017-12-23T07:12:03.243Z,100603.17
2017-12-23T07:14:30.875Z,100608.57
2017-12-23T07:16:58.534Z,100604.52
2017-12-23T07:19:26.142Z,100608.77
2017-12-23T07:21:53.747Z,100605.63
2017-12-23T07:24:21.465Z,100597.00
2017-12-23T07:26:49.119Z,100604.52
2017-12-23T07:29:16.714Z,100600.16
2017-12-23T07:31:44.362Z,100605.91
2017-12-23T07:34:11.969Z,100601.42
2017-12-23T07:36:39.566Z,100597.11
2017-12-23T07:39:07.259Z,100605.44
2017-12-23T07:41:34.867Z,100598.50
2017-12-23T07:44:02.475Z,100605.36
2017-12-23T07:46:30.136Z,100603.15
2017-12-23T07:48:57.745Z,100609.08
2017-12-23T07:51:25.404Z,100608.46
2017-12-23T07:53:53.071Z,100608.59
2017-12-23T07:56:20.667Z,100610.50
2017-12-23T07:58:48.410Z,100616.82
2017-12-23T08:01:16.147Z,100621.77
2017-12-23T08:03:43.803Z,100625.94
2017-12-23T08:06:11.403Z,100628.67
2017-12-23T08:08:39.052Z,100624.88
2017-12-23T08:11:06.710Z,100616.86
2017-12-23T08:13:34.309Z,100614.47
2017-12-23T08:16:01.911Z,100627.24
2017-12-23T08:18:29.506Z,100631.20
2017-12-23T08:20:57.142Z,100638.02
2017-12-23T08:23:24.858Z,100648.72
2017-12-23T08:25:52.521Z,100649.66
2017-12-23T08:28:20.182Z,100648.03
2017-12-23T08:30:47.870Z,100649.47
2017-12-23T08:33:15.507Z,100646.55
2017-12-23T08:35:43.171Z,100654.34
2017-12-23T08:38:10.842Z,100650.41
2017-12-23T08:40:38.518Z,100653.50
2017-12-23T08:43:06.122Z,100658.14
2017-12-23T08:45:33.839Z,100657.12
2017-12-23T08:48:01.446Z,100653.51
2017-12-23T08:50:29.108Z,100652.98
2017-12-23T08:52:56.766Z,100655.05
2017-12-23T08:55:24.378Z,100655.61
2017-12-23T08:57:51.975Z,100650.78
2017-12-23T09:00:19.637Z,100658.61
2017-12-23T09:02:47.389Z,100660.89
2017-12-23T09:05:14.998Z,100652.12
2017-12-23T09:07:42.740Z,100658.50
2017-12-23T09:10:10.374Z,100663.52
2017-12-23T09:12:38.032Z,100662.77
2017-12-23T09:15:05.746Z,100656.42
2017-12-23T09:17:33.421Z,100654.67
2017-12-23T09:20:01.062Z,100656.74
2017-12-23T09:22:28.802Z,100662.49
2017-12-23T09:24:56.398Z,100664.61
2017-12-23T09:27:23.991Z,100655.23
2017-12-23T09:29:51.647Z,100655.89
2017-12-23T09:32:19.254Z,100652.38
2017-12-23T09:34:46.862Z,100642.02
2017-12-23T09:37:14.574Z,100640.71
2017-12-23T09:39:42.243Z,100642.50
2017-12-23T09:42:09.898Z,100643.30
2017-12-23T09:44:37.614Z,100642.17
2017-12-23T09:47:05.210Z,100633.94
2017-12-23T09:49:32.808Z,100640.30
2017-12-23T09:52:00.454Z,100626.54
2017-12-23T09:54:28.113Z,100629.35
2017-12-23T09:56:55.771Z,100626.67
2017-12-23T09:59:23.515Z,100618.05
2017-12-23T10:01:51.173Z,100617.33
2017-12-23T10:04:18.769Z,100621.20
2017-12-23T10:06:46.419Z,100612.55
2017-12-23T10:09:14.080Z,100617.16
2017-12-23T10:11:41.682Z,100603.42
2017-12-23T10:14:09.390Z,100612.79
2017-12-23T10:16:37.041Z,100606.78
2017-12-23T10:19:04.642Z,100607.63
2017-12-23T10:21:32.322Z,100611.67
2017-12-23T10:23:59.926Z,100614.64
2017-12-23T10:26:27.526Z,100617.56
2017-12-23T10:28:55.271Z,100616.14
2017-12-23T10:31:22.866Z,100600.95
2017-12-23T10:33:50.466Z,100608.55
2017-12-23T10:36:18.118Z,100599.19
2017-12-23T10:38:45.721Z,100594.15
2017-12-23T10:41:13.353Z,100600.45
2017-12-23T10:43:41.067Z,100603.45
2017-12-23T10:46:08.731Z,100603.01
2017-12-23T10:48:36.326Z,100613.45
2017-12-23T10:51:04.031Z,100611.55
2017-12-23T10:53:31.690Z,100614.15
2017-12-23T10:55:59.350Z,100611.22
2017-12-23T10:58:27.014Z,100611.36
2017-12-23T11:00:54.678Z,100616.23
2017-12-23T11:03:22.339Z,100612.66
2017-12-23T11:05:49.999Z,100602.16
2017-12-23T11:08:17.703Z,100595.80
2017-12-23T11:10:45.307Z,100589.87
2017-12-23T11:13:13.027Z,100596.00
2017-12-23T11:15:40.630Z,100596.17
2017-12-23T11:18:08.235Z,100587.67
2017-12-23T11:20:35.886Z,100594.86
2017-12-23T11:23:03.551Z,100582.81
2017-12-23T11:25:31.214Z,100575.27
2017-12-23T11:27:58.862Z,100574.56
2017-12-23T11:30:26.455Z,100573.20
2017-12-23T11:32:54.119Z,100568.42
2017-12-23T11:35:21.774Z,100568.12
2017-12-23T11:37:49.375Z,100569.92
2017-12-23T11:40:16.975Z,100571.20
2017-12-23T11:42:44.719Z,100571.09
2017-12-23T11:45:12.338Z,100551.86
2017-12-23T11:47:39.931Z,100557.33
2017-12-23T11:50:07.586Z,100550.52
2017-12-23T11:52:35.210Z,100556.91
2017-12-23T11:55:02.876Z,100556.78
2017-12-23T11:57:30.552Z,100553.96
2017-12-23T11:59:58.171Z,100561.16
2017-12-23T12:02:25.860Z,100563.00
2017-12-23T12:04:53.574Z,100548.45
2017-12-23T12:07:21.232Z,100565.34
2017-12-23T12:09:48.905Z,100562.40
2017-12-23T12:12:16.567Z,100571.30
2017-12-23T12:14:44.232Z,100570.13
2017-12-23T12:17:11.891Z,100565.08
2017-12-23T12:19:39.552Z,100565.87
2017-12-23T12:22:07.158Z,100574.16
2017-12-23T12:24:34.814Z,100571.42
2017-12-23T12:27:02.467Z,100565.91
2017-12-23T12:29:30.067Z,100565.52
2017-12-23T12:31:57.670Z,100567.83
2017-12-23T12:34:25.388Z,100569.08
2017-12-23T12:36:53.043Z,100557.28
2017-12-23T12:39:20.702Z,100553.08
2017-12-23T12:41:49.242Z,100564.11
2017-12-23T12:44:16.914Z,100561.83
2017-12-23T12:46:44.552Z,100564.70
2017-12-23T12:49:12.168Z,100560.99
2017-12-23T12:51:39.876Z,100564.66
2017-12-23T12:54:07.478Z,100571.56
2017-12-23T12:56:35.096Z,100576.45
2017-12-23T12:59:02.699Z,100568.34
2017-12-23T13:01:30.303Z,100572.22
2017-12-23T13:03:57.910Z,100572.41
2017-12-23T13:06:25.511Z,100563.22
2017-12-23T13:08:53.116Z,100569.20
2017-12-23T13:11:20.726Z,100575.64
2017-12-23T13:13:48.326Z,100566.92
2017-12-23T13:16:15.985Z,100571.96
2017-12-23T13:18:43.644Z,100579.11
2017-12-23T13:21:11.312Z,100577.84
2017-12-23T13:23:38.910Z,100579.59
2017-12-23T13:26:06.560Z,100576.27
2017-12-23T13:28:34.159Z,100574.41
2017-12-23T13:31:01.755Z,100580.45
2017-12-23T13:33:29.413Z,100582.83
2017-12-23T13:35:57.018Z,100587.80
2017-12-23T13:38:24.622Z,100587.13
2017-12-23T13:40:52.295Z,100579.11
2017-12-23T13:43:19.955Z,100582.82
2017-12-23T13:45:47.558Z,100584.80
2017-12-23T13:48:15.227Z,100583.66
2017-12-23T13:50:42.840Z,100590.24
2017-12-23T13:53:10.446Z,100587.30
2017-12-23T13:55:38.172Z,100583.91
2017-12-23T13:58:05.770Z,100591.75
2017-12-23T14:00:33.367Z,100592.00
2017-12-23T14:03:01.019Z,100585.23
2017-12-23T14:05:28.618Z,100595.52
2017-12-23T14:07:56.219Z,100585.05
2017-12-23T14:10:23.947Z,100586.37
2017-12-23T14:12:51.616Z,100586.98
2017-12-23T14:15:19.275Z,100581.78
2017-12-23T14:17:46.923Z,100585.47
2017-12-23T14:20:14.523Z,100583.40
2017-12-23T14:22:42.123Z,100588.86
2017-12-23T14:25:09.831Z,100580.69
2017-12-23T14:27:37.434Z,100581.61
2017-12-23T14:30:05.110Z,100585.52
2017-12-23T14:32:32.767Z,100588.17
2017-12-23T14:35:00.362Z,100587.45
2017-12-23T14:37:28.027Z,100590.88
2017-12-23T14:39:55.747Z,100586.40
2017-12-23T14:42:23.414Z,100591.72
2017-12-23T14:44:51.075Z,100587.84
2017-12-23T14:47:18.783Z,100591.05
2017-12-23T14:49:46.450Z,100595.22
2017-12-23T14:52:14.163Z,100588.73
2017-12-23T14:54:41.818Z,100591.23
2017-12-23T14:57:09.423Z,100593.00
2017-12-23T14:59:37.033Z,100594.22
2017-12-23T15:02:04.771Z,100589.48
2017-12-23T15:04:32.374Z,100593.34
2017-12-23T15:06:59.973Z,100594.67
2017-12-23T15:09:27.691Z,100591.34
2017-12-23T15:11:55.298Z,100597.23
2017-12-23T15:14:22.894Z,100595.55
2017-12-23T15:16:50.635Z,100603.61
2017-12-23T15:19:18.233Z,100609.67
2017-12-23T15:21:45.894Z,100602.29
2017-12-23T15:24:13.542Z,100605.68
2017-12-23T15:26:41.144Z,100604.97
2017-12-23T15:29:08.816Z,100608.88
2017-12-23T15:31:36.526Z,100605.33
2017-12-23T15:34:04.131Z,100609.71
2017-12-23T15:36:31.730Z,100607.37
2017-12-23T15:38:59.394Z,100609.39
2017-12-23T15:41:26.999Z,100619.58
2017-12-23T15:43:54.598Z,100623.67
2017-12-23T15:46:22.315Z,100627.20
2017-12-23T15:48:49.923Z,100624.67
2017-12-23T15:51:17.531Z,100624.82
2017-12-23T15:53:45.266Z,100626.88
2017-12-23T15:56:12.876Z,100623.34
2017-12-23T15:58:40.486Z,100633.14
2017-12-23T16:01:08.155Z,100628.77
2017-12-23T16:03:35.836Z,100629.43
2017-12-23T16:06:03.430Z,100635.30
2017-12-23T16:08:31.150Z,100628.19
2017-12-23T16:10:58.815Z,100633.79
2017-12-23T16:13:26.411Z,100637.90
2017-12-23T16:15:54.098Z,100639.39
2017-12-23T16:18:21.759Z,100640.13
2017-12-23T16:20:49.363Z,100650.02
2017-12-23T16:23:17.103Z,100646.16
2017-12-23T16:25:44.706Z,100642.84
2017-12-23T16:28:12.362Z,100642.03
2017-12-23T16:30:40.043Z,100645.97
2017-12-23T16:33:07.646Z,100655.39
2017-12-23T16:35:35.312Z,100660.31
2017-12-23T16:38:02.980Z,100659.62
2017-12-23T16:40:30.649Z,100660.94
2017-12-23T16:42:58.307Z,100667.17
2017-12-23T16:45:26.054Z,100658.83
2017-12-23T16:47:53.713Z,100664.22
2017-12-23T16:50:21.376Z,100663.59
2017-12-23T16:52:49.031Z,100664.66
2017-12-23T16:55:16.635Z,100661.63
2017-12-23T16:57:44.290Z,100666.70
2017-12-23T17:00:11.939Z,100658.88
2017-12-23T17:02:39.660Z,100655.63
2017-12-23T17:05:07.380Z,100663.07
2017-12-23T17:07:35.096Z,100658.39
2017-12-23T17:10:02.706Z,100671.04
2017-12-23T17:12:30.368Z,100675.23
2017-12-23T17:14:58.088Z,100667.19
2017-12-23T17:17:25.747Z,100665.64
2017-12-23T17:19:53.346Z,100677.85
2017-12-23T17:22:20.998Z,100690.98
2017-12-23T17:24:48.655Z,100679.39
2017-12-23T17:27:16.256Z,100676.17
2017-12-23T17:29:55.575Z,100676.14
2017-12-23T17:32:23.178Z,100677.63
2017-12-23T17:34:50.778Z,100686.88
2017-12-23T17:37:18.391Z,100684.84
2017-12-23T17:39:45.995Z,100689.56
2017-12-23T17:42:13.655Z,100678.97
2017-12-23T17:44:41.314Z,100668.78
2017-12-23T17:47:08.974Z,100671.45
2017-12-23T17:49:36.578Z,100682.31
2017-12-23T17:52:04.183Z,100677.12
2017-12-23T17:54:31.850Z,100686.19
2017-12-23T17:56:59.455Z,100691.43
2017-12-23T17:59:27.053Z,100689.20
2017-12-23T18:01:54.720Z,100690.00
2017-12-23T18:04:22.295Z,100690.33
2017-12-23T18:06:50.443Z,100694.78
2017-12-23T18:09:18.047Z,100691.16
2017-12-23T18:11:45.659Z,100694.83
2017-12-23T18:14:13.271Z,100690.81
2017-12-23T18:16:40.954Z,100698.08
2017-12-23T18:19:08.671Z,100702.31
2017-12-23T18:21:36.268Z,100702.84
2017-12-23T18:24:03.931Z,100696.42
2017-12-23T18:26:31.534Z,100703.45
2017-12-23T18:28:59.135Z,100701.16
2017-12-23T18:31:26.803Z,100698.80
2017-12-23T18:33:54.459Z,100704.61
2017-12-23T18:36:22.064Z,100703.86
2017-12-23T18:38:49.734Z,100708.80
2017-12-23T18:41:17.341Z,100708.64
2017-12-23T18:43:45.064Z,100708.20
2017-12-23T18:46:12.679Z,100716.66
2017-12-23T18:48:40.363Z,100712.95
2017-12-23T18:51:07.978Z,100713.21
2017-12-23T18:53:35.583Z,100714.47
2017-12-23T18:56:03.305Z,100716.55
2017-12-23T18:58:30.924Z,100717.86
2017-12-23T19:00:58.567Z,100708.53
2017-12-23T19:03:26.236Z,100723.23
2017-12-23T19:05:53.898Z,100712.52
2017-12-23T19:08:21.547Z,100713.09
2017-12-23T19:10:49.155Z,100717.66
2017-12-23T19:13:16.819Z,100727.09
2017-12-23T19:15:51.387Z,100720.73
2017-12-23T19:18:18.987Z,100721.36
2017-12-23T19:20:46.598Z,100729.00
2017-12-23T19:23:14.255Z,100733.15
2017-12-23T19:25:41.978Z,100736.88
2017-12-23T19:28:09.783Z,100729.02
2017-12-23T19:30:37.398Z,100731.55
2017-12-23T19:33:05.015Z,100734.75
2017-12-23T19:35:32.674Z,100737.28
2017-12-23T19:38:00.350Z,100746.56
2017-12-23T19:40:27.995Z,100741.16
2017-12-23T19:42:55.706Z,100746.14
2017-12-23T19:45:23.318Z,100750.13
2017-12-23T19:47:50.978Z,100746.19
2017-12-23T19:50:18.634Z,100750.02
2017-12-23T19:52:46.239Z,100744.06
2017-12-23T19:55:13.834Z,100740.03
2017-12-23T19:57:41.502Z,100735.78
2017-12-23T20:00:09.119Z,100732.70
2017-12-23T20:02:36.835Z,100735.78
2017-12-23T20:05:04.490Z,100735.40
2017-12-23T20:07:32.091Z,100738.30
2017-12-23T20:09:59.703Z,100747.05
2017-12-23T20:12:27.302Z,100745.78
2017-12-23T20:14:55.047Z,100741.66
2017-12-23T20:17:22.674Z,100740.75
2017-12-23T20:19:50.277Z,100750.75
2017-12-23T20:22:17.899Z,100746.25
2017-12-23T20:24:45.561Z,100754.97
2017-12-23T20:27:13.304Z,100749.00
2017-12-23T20:29:40.902Z,100755.72
2017-12-23T20:32:08.537Z,100749.52
2017-12-23T20:34:36.146Z,100743.35
2017-12-23T20:37:03.746Z,100748.89
2017-12-23T20:39:31.399Z,100746.44
2017-12-23T20:41:59.054Z,100744.78
2017-12-23T20:44:26.712Z,100747.81
2017-12-23T20:46:54.383Z,100745.54
2017-12-23T20:49:22.046Z,100755.29
2017-12-23T20:51:49.699Z,100748.00
2017-12-23T20:54:17.299Z,100740.33
2017-12-23T20:56:44.903Z,100738.39
2017-12-23T20:59:12.570Z,100748.84
2017-12-23T21:01:40.231Z,100745.34
2017-12-23T21:04:07.900Z,100743.84
2017-12-23T21:06:35.558Z,100745.16
2017-12-23T21:09:03.290Z,100753.01
2017-12-23T21:11:30.956Z,100738.52
2017-12-23T21:13:58.559Z,100743.50
2017-12-23T21:16:26.240Z,100736.77
2017-12-23T21:18:53.894Z,100732.51
2017-12-23T21:21:21.552Z,100733.80
2017-12-23T21:23:49.226Z,100731.32
2017-12-23T21:26:16.823Z,100731.23
2017-12-23T21:28:44.469Z,100731.90
2017-12-23T21:31:12.063Z,100727.50
2017-12-23T21:33:39.722Z,100730.66
2017-12-23T21:36:07.391Z,100729.05
2017-12-23T21:38:35.051Z,100724.17
2017-12-23T21:41:02.702Z,100721.91
2017-12-23T21:43:30.302Z,100720.92
2017-12-23T21:45:57.902Z,100725.36
2017-12-23T21:48:25.522Z,100736.17
2017-12-23T21:50:53.202Z,100736.48
2017-12-23T21:53:20.858Z,100737.86
2017-12-23T21:55:48.455Z,100733.52
2017-12-23T21:58:16.119Z,100735.55
2017-12-23T22:00:43.731Z,100718.27
2017-12-23T22:03:11.330Z,100720.72
2017-12-23T22:05:38.991Z,100727.35
2017-12-23T22:08:06.599Z,100733.89
2017-12-23T22:10:34.200Z,100731.80
2017-12-23T22:13:01.868Z,100738.43
2017-12-23T22:15:29.468Z,100746.67
2017-12-23T22:17:57.182Z,100742.27
2017-12-23T22:20:24.786Z,100744.02
2017-12-23T22:22:52.385Z,100743.08
2017-12-23T22:25:19.995Z,100731.43
2017-12-23T22:27:47.654Z,100717.12
2017-12-23T22:30:15.375Z,100711.63
2017-12-23T22:32:42.978Z,100718.35
2017-12-23T22:35:10.643Z,100723.19
2017-12-23T22:37:38.340Z,100712.00
2017-12-23T22:40:05.946Z,100707.70
2017-12-23T22:42:34.602Z,100697.33
2017-12-23T22:45:02.263Z,100683.55
2017-12-23T22:47:29.858Z,100685.49
2017-12-23T22:49:57.476Z,100682.61
2017-12-23T22:52:25.166Z,100680.95
2017-12-23T22:54:52.879Z,100675.27
2017-12-23T22:57:20.479Z,100673.75
2017-12-23T22:59:48.144Z,100681.14
2017-12-23T23:02:15.814Z,100678.11
2017-12-23T23:04:43.418Z,100671.43
2017-12-23T23:07:11.131Z,100672.80
2017-12-23T23:09:38.730Z,100669.30
2017-12-23T23:12:06.330Z,100667.87
2017-12-23T23:14:33.939Z,100658.92
2017-12-23T23:17:01.534Z,100654.37
2017-12-23T23:19:29.194Z,100653.85
2017-12-23T23:21:56.794Z,100654.47
2017-12-23T23:24:24.452Z,100656.66
2017-12-23T23:26:52.059Z,100653.90
2017-12-23T23:29:19.723Z,100643.11
2017-12-23T23:31:47.378Z,100649.59
2017-12-23T23:34:14.982Z,100647.52
2017-12-23T23:36:42.581Z,100650.97
2017-12-23T23:39:10.251Z,100642.17
2017-12-23T23:41:37.850Z,100641.09
2017-12-23T23:44:05.567Z,100639.79
2017-12-23T23:46:33.178Z,100631.93
2017-12-23T23:49:00.783Z,100639.98
2017-12-23T23:51:28.390Z,100642.66
2017-12-23T23:53:56.048Z,100633.64
2017-12-23T23:56:23.687Z,100635.27
2017-12-23T23:58:51.338Z,100638.99
